createdAt,value
2018-08-11T00:00:35.656Z,99266.88
2018-08-11T00:03:04.225Z,99265.25
2018-08-11T00:05:32.724Z,99266.27
2018-08-11T00:08:01.282Z,99268.27
2018-08-11T00:10:29.745Z,99257.77
2018-08-11T00:12:58.277Z,99260.16
2018-08-11T00:15:26.816Z,99265.56
2018-08-11T00:17:55.261Z,99268.77
2018-08-11T00:20:25.511Z,99267.58
2018-08-11T00:22:54.009Z,99272.30
2018-08-11T00:25:22.509Z,99271.83
2018-08-11T00:27:51.062Z,99272.81
2018-08-11T00:30:20.822Z,99275.70
2018-08-11T00:32:49.360Z,99277.30
2018-08-11T00:35:18.229Z,99276.16
2018-08-11T00:37:46.988Z,99276.47
2018-08-11T00:40:19.193Z,99276.06
2018-08-11T00:42:48.770Z,99273.70
2018-08-11T00:45:18.577Z,99275.77
2018-08-11T00:47:47.178Z,99280.08
2018-08-11T00:50:23.072Z,99279.67
2018-08-11T00:52:51.545Z,99281.22
2018-08-11T00:55:20.053Z,99280.17
2018-08-11T00:57:48.673Z,99279.87
2018-08-11T01:00:19.386Z,99282.44
2018-08-11T01:02:48.077Z,99286.89
2018-08-11T01:05:20.110Z,99285.94
2018-08-11T01:07:49.137Z,99287.77
2018-08-11T01:10:18.341Z,99287.31
2018-08-11T01:12:47.332Z,99288.73
2018-08-11T01:15:20.018Z,99288.42
2018-08-11T01:17:49.313Z,99295.63
2018-08-11T01:20:18.468Z,99301.52
2018-08-11T01:22:47.705Z,99293.58
2018-08-11T01:25:16.563Z,99297.06
2018-08-11T01:27:45.184Z,99293.31
2018-08-11T01:30:16.516Z,99294.67
2018-08-11T01:32:45.074Z,99292.05
2018-08-11T01:35:13.677Z,99293.71
2018-08-11T01:37:43.207Z,99294.92
2018-08-11T01:40:12.944Z,99291.66
2018-08-11T01:42:42.491Z,99287.20
2018-08-11T01:45:11.901Z,99295.46
2018-08-11T01:47:40.813Z,99296.92
2018-08-11T01:50:10.984Z,99291.09
2018-08-11T01:52:40.645Z,99293.80
2018-08-11T01:55:10.106Z,99287.86
2018-08-11T01:57:38.557Z,99294.33
2018-08-11T02:00:09.045Z,99293.29
2018-08-11T02:02:37.852Z,99287.01
2018-08-11T02:05:06.748Z,99291.67
2018-08-11T02:07:35.333Z,99283.77
2018-08-11T02:10:04.921Z,99288.13
2018-08-11T02:12:33.451Z,99286.52
2018-08-11T02:15:01.911Z,99286.19
2018-08-11T02:17:30.580Z,99285.91
2018-08-11T02:19:59.104Z,99284.13
2018-08-11T02:22:27.577Z,99288.73
2018-08-11T02:24:57.101Z,99288.32
2018-08-11T02:27:25.606Z,99288.62
2018-08-11T02:29:54.168Z,99293.58
2018-08-11T02:32:22.611Z,99288.82
2018-08-11T02:34:51.118Z,99291.41
2018-08-11T02:37:19.653Z,99291.20
2018-08-11T02:39:48.161Z,99293.92
2018-08-11T02:42:16.822Z,99298.61
2018-08-11T02:44:45.354Z,99297.66
2018-08-11T02:47:13.837Z,99299.78
2018-08-11T02:49:42.313Z,99294.84
2018-08-11T02:52:10.758Z,99295.91
2018-08-11T02:54:39.261Z,99298.33
2018-08-11T02:57:07.665Z,99305.36
2018-08-11T02:59:36.172Z,99304.92
2018-08-11T03:02:04.657Z,99308.27
2018-08-11T03:04:33.065Z,99307.27
2018-08-11T03:07:01.558Z,99310.33
2018-08-11T03:09:30.102Z,99311.88
2018-08-11T03:11:58.634Z,99310.70
2018-08-11T03:14:27.159Z,99313.59
2018-08-11T03:16:55.570Z,99313.53
2018-08-11T03:19:24.148Z,99318.27
2018-08-11T03:21:52.662Z,99321.28
2018-08-11T03:24:21.087Z,99322.19
2018-08-11T03:26:49.501Z,99321.50
2018-08-11T03:29:18.303Z,99327.14
2018-08-11T03:31:46.758Z,99331.97
2018-08-11T03:34:15.674Z,99332.47
2018-08-11T03:36:44.166Z,99331.40
2018-08-11T03:39:13.387Z,99334.22
2018-08-11T03:41:42.318Z,99338.59
2018-08-11T03:44:11.240Z,99334.45
2018-08-11T03:46:39.699Z,99336.92
2018-08-11T03:49:08.253Z,99342.53
2018-08-11T03:51:36.693Z,99343.61
2018-08-11T03:54:05.245Z,99343.83
2018-08-11T03:56:33.713Z,99347.57
2018-08-11T03:59:02.149Z,99351.81
2018-08-11T04:01:30.596Z,99344.59
2018-08-11T04:03:59.099Z,99356.49
2018-08-11T04:06:27.593Z,99356.99
2018-08-11T04:08:56.050Z,99361.20
2018-08-11T04:11:24.535Z,99361.95
2018-08-11T04:13:53.011Z,99363.96
2018-08-11T04:16:21.521Z,99364.34
2018-08-11T04:18:49.948Z,99365.30
2018-08-11T04:21:18.727Z,99370.18
2018-08-11T04:23:47.133Z,99370.91
2018-08-11T04:26:15.794Z,99374.84
2018-08-11T04:28:44.233Z,99376.34
2018-08-11T04:31:12.765Z,99374.20
2018-08-11T04:33:41.161Z,99374.47
2018-08-11T04:36:10.030Z,99379.84
2018-08-11T04:38:38.418Z,99376.73
2018-08-11T04:41:06.989Z,99380.16
2018-08-11T04:43:35.373Z,99379.42
2018-08-11T04:46:03.861Z,99369.72
2018-08-11T04:48:32.480Z,99378.53
2018-08-11T04:51:00.969Z,99385.71
2018-08-11T04:53:29.441Z,99383.02
2018-08-11T04:55:57.874Z,99379.45
2018-08-11T04:58:26.274Z,99382.97
2018-08-11T05:00:54.810Z,99388.55
2018-08-11T05:03:23.239Z,99391.46
2018-08-11T05:05:51.822Z,99391.46
2018-08-11T05:08:20.578Z,99391.81
2018-08-11T05:10:49.017Z,99399.55
2018-08-11T05:13:17.925Z,99400.44
2018-08-11T05:15:46.393Z,99396.06
2018-08-11T05:18:14.929Z,99404.03
2018-08-11T05:20:43.409Z,99401.05
2018-08-11T05:23:11.813Z,99399.53
2018-08-11T05:25:40.305Z,99404.80
2018-08-11T05:28:09.021Z,99402.77
2018-08-11T05:30:37.457Z,99409.38
2018-08-11T05:33:06.835Z,99406.71
2018-08-11T05:35:35.254Z,99406.45
2018-08-11T05:38:03.801Z,99404.40
2018-08-11T05:40:32.233Z,99404.88
2018-08-11T05:43:00.721Z,99411.00
2018-08-11T05:45:29.177Z,99414.42
2018-08-11T05:47:57.690Z,99417.13
2018-08-11T05:50:26.142Z,99416.45
2018-08-11T05:52:54.953Z,99412.78
2018-08-11T05:55:23.412Z,99415.41
2018-08-11T05:57:51.941Z,99415.70
2018-08-11T06:00:20.418Z,99421.56
2018-08-11T06:02:48.885Z,99421.06
2018-08-11T06:05:17.597Z,99426.88
2018-08-11T06:07:46.097Z,99423.45
2018-08-11T06:10:14.541Z,99430.95
2018-08-11T06:12:43.019Z,99434.92
2018-08-11T06:15:11.749Z,99419.84
2018-08-11T06:17:40.228Z,99426.67
2018-08-11T06:20:09.538Z,99427.93
2018-08-11T06:22:38.149Z,99430.23
2018-08-11T06:25:08.652Z,99427.31
2018-08-11T06:27:37.077Z,99435.19
2018-08-11T06:30:07.070Z,99429.37
2018-08-11T06:32:35.592Z,99435.47
2018-08-11T06:35:04.317Z,99433.95
2018-08-11T06:37:32.991Z,99435.80
2018-08-11T06:40:01.415Z,99434.04
2018-08-11T06:42:29.926Z,99435.05
2018-08-11T06:44:58.443Z,99429.83
2018-08-11T06:47:27.042Z,99430.59
2018-08-11T06:49:55.535Z,99431.41
2018-08-11T06:52:24.061Z,99430.50
2018-08-11T06:54:52.686Z,99424.71
2018-08-11T06:57:21.106Z,99427.51
2018-08-11T06:59:49.574Z,99425.81
2018-08-11T07:02:18.653Z,99426.95
2018-08-11T07:04:47.146Z,99428.13
2018-08-11T07:07:15.799Z,99424.02
2018-08-11T07:09:44.201Z,99420.88
2018-08-11T07:12:12.961Z,99420.41
2018-08-11T07:14:41.392Z,99429.13
2018-08-11T07:19:47.934Z,99427.22
2018-08-11T07:22:17.757Z,99419.13
2018-08-11T07:24:46.212Z,99427.69
2018-08-11T07:27:14.871Z,99433.95
2018-08-11T07:29:43.679Z,99431.47
2018-08-11T07:32:12.911Z,99435.55
2018-08-11T07:34:41.332Z,99432.17
2018-08-11T07:37:09.772Z,99432.17
2018-08-11T07:39:38.533Z,99434.73
2018-08-11T07:42:07.277Z,99427.48
2018-08-11T07:44:35.716Z,99425.66
2018-08-11T07:47:04.521Z,99432.09
2018-08-11T07:49:33.016Z,99427.47
2018-08-11T07:52:01.482Z,99426.80
2018-08-11T07:54:30.046Z,99422.34
2018-08-11T07:56:58.529Z,99419.61
2018-08-11T07:59:27.082Z,99425.53
2018-08-11T08:01:55.617Z,99430.77
2018-08-11T08:04:24.187Z,99425.30
2018-08-11T08:06:52.651Z,99411.95
2018-08-11T08:09:21.381Z,99416.61
2018-08-11T08:11:49.818Z,99416.08
2018-08-11T08:14:19.129Z,99415.18
2018-08-11T08:16:47.514Z,99421.80
2018-08-11T08:19:16.420Z,99421.20
2018-08-11T08:21:44.870Z,99415.02
2018-08-11T08:24:13.429Z,99415.58
2018-08-11T08:26:42.017Z,99417.02
2018-08-11T08:29:10.542Z,99409.39
2018-08-11T08:31:39.017Z,99409.00
2018-08-11T08:34:07.507Z,99413.22
2018-08-11T08:36:35.954Z,99411.50
2018-08-11T08:39:07.953Z,99409.85
2018-08-11T08:41:36.585Z,99411.04
2018-08-11T08:44:05.136Z,99409.01
2018-08-11T08:46:33.701Z,99399.31
2018-08-11T08:49:02.183Z,99396.33
2018-08-11T08:51:30.661Z,99400.47
2018-08-11T08:53:59.145Z,99394.59
2018-08-11T08:56:27.841Z,99392.67
2018-08-11T08:58:56.336Z,99391.08
2018-08-11T09:01:24.966Z,99385.80
2018-08-11T09:03:53.450Z,99385.56
2018-08-11T09:06:21.957Z,99390.47
2018-08-11T09:08:50.446Z,99394.31
2018-08-11T09:11:19.122Z,99381.39
2018-08-11T09:13:47.582Z,99384.55
2018-08-11T09:16:16.769Z,99380.28
2018-08-11T09:18:45.165Z,99384.47
2018-08-11T09:21:13.669Z,99382.63
2018-08-11T09:23:42.073Z,99384.73
2018-08-11T09:26:11.058Z,99377.16
2018-08-11T09:28:39.461Z,99381.08
2018-08-11T09:31:08.019Z,99383.09
2018-08-11T09:33:36.457Z,99383.41
2018-08-11T09:36:05.029Z,99375.48
2018-08-11T09:38:33.608Z,99380.06
2018-08-11T09:41:02.138Z,99370.17
2018-08-11T09:43:30.686Z,99376.03
2018-08-11T09:45:59.178Z,99374.11
2018-08-11T09:48:27.652Z,99364.47
2018-08-11T09:50:56.186Z,99360.70
2018-08-11T09:53:24.641Z,99357.41
2018-08-11T09:55:53.137Z,99359.43
2018-08-11T09:58:21.542Z,99364.27
2018-08-11T10:00:54.163Z,99354.17
2018-08-11T10:03:22.833Z,99357.13
2018-08-11T10:05:51.502Z,99363.14
2018-08-11T10:08:20.119Z,99355.20
2018-08-11T10:10:48.639Z,99359.42
2018-08-11T10:13:18.169Z,99359.64
2018-08-11T10:15:46.662Z,99354.89
2018-08-11T10:18:15.090Z,99350.06
2018-08-11T10:20:43.577Z,99350.45
2018-08-11T10:23:12.093Z,99340.94
2018-08-11T10:25:40.629Z,99344.92
2018-08-11T10:28:09.121Z,99339.77
2018-08-11T10:30:37.594Z,99347.80
2018-08-11T10:33:06.166Z,99347.25
2018-08-11T10:35:34.641Z,99342.12
2018-08-11T10:38:03.157Z,99336.68
2018-08-11T10:42:54.268Z,99335.86
2018-08-11T10:45:22.740Z,99333.09
2018-08-11T10:47:51.215Z,99330.94
2018-08-11T10:50:19.765Z,99324.70
2018-08-11T10:52:48.194Z,99328.36
2018-08-11T10:55:16.849Z,99331.25
2018-08-11T10:57:45.461Z,99330.68
2018-08-11T11:00:14.049Z,99326.09
2018-08-11T11:02:42.509Z,99329.14
2018-08-11T11:05:11.111Z,99330.11
2018-08-11T11:07:39.753Z,99323.26
2018-08-11T11:10:08.369Z,99318.53
2018-08-11T11:12:36.905Z,99317.45
2018-08-11T11:15:06.712Z,99325.98
2018-08-11T11:17:35.243Z,99314.20
2018-08-11T11:20:03.690Z,99305.87
2018-08-11T11:22:32.133Z,99303.81
2018-08-11T11:25:00.564Z,99300.23
2018-08-11T11:27:29.077Z,99304.11
2018-08-11T11:29:57.587Z,99301.36
2018-08-11T11:32:26.008Z,99302.42
2018-08-11T11:34:54.708Z,99303.88
2018-08-11T11:37:23.310Z,99302.36
2018-08-11T11:39:51.692Z,99295.94
2018-08-11T11:42:20.221Z,99291.22
2018-08-11T11:44:48.744Z,99301.39
2018-08-11T11:47:17.884Z,99292.89
2018-08-11T11:49:46.357Z,99281.77
2018-08-11T11:52:14.834Z,99281.70
2018-08-11T11:54:43.294Z,99279.14
2018-08-11T11:57:11.761Z,99279.56
2018-08-11T11:59:40.257Z,99281.48
2018-08-11T12:02:08.923Z,99276.67
2018-08-11T12:04:37.324Z,99268.47
2018-08-11T12:07:06.388Z,99273.55
2018-08-11T12:09:34.894Z,99269.14
2018-08-11T12:12:03.417Z,99271.45
2018-08-11T12:14:31.886Z,99260.78
2018-08-11T12:17:00.377Z,99256.20
2018-08-11T12:19:28.902Z,99266.14
2018-08-11T12:21:57.329Z,99264.97
2018-08-11T12:24:25.789Z,99263.33
2018-08-11T12:26:54.249Z,99250.22
2018-08-11T12:29:22.757Z,99250.70
2018-08-11T12:31:51.201Z,99252.11
2018-08-11T12:34:19.750Z,99247.40
2018-08-11T12:36:48.178Z,99240.08
2018-08-11T12:39:17.021Z,99230.66
2018-08-11T12:41:45.445Z,99235.16
2018-08-11T12:44:13.941Z,99230.98
2018-08-11T12:46:42.477Z,99238.69
2018-08-11T12:49:10.917Z,99234.76
2018-08-11T12:51:39.305Z,99229.80
2018-08-11T12:54:07.816Z,99229.31
2018-08-11T12:56:36.261Z,99226.72
2018-08-11T12:59:04.802Z,99227.30
2018-08-11T13:01:33.374Z,99214.58
2018-08-11T13:04:01.865Z,99209.58
2018-08-11T13:06:30.263Z,99210.69
2018-08-11T13:08:58.785Z,99212.97
2018-08-11T13:11:27.238Z,99217.80
2018-08-11T13:13:55.793Z,99206.09
2018-08-11T13:16:24.202Z,99206.55
2018-08-11T13:18:53.100Z,99210.05
2018-08-11T13:21:21.576Z,99207.55
2018-08-11T13:23:50.210Z,99203.00
2018-08-11T13:26:18.977Z,99214.21
2018-08-11T13:28:47.714Z,99195.91
2018-08-11T13:31:16.299Z,99196.62
2018-08-11T13:33:44.897Z,99186.81
2018-08-11T13:36:13.457Z,99192.52
2018-08-11T13:38:42.034Z,99179.93
2018-08-11T13:41:10.554Z,99179.11
2018-08-11T13:43:39.060Z,99172.27
2018-08-11T13:46:07.553Z,99172.08
2018-08-11T13:48:35.985Z,99173.11
2018-08-11T13:51:04.530Z,99170.84
2018-08-11T13:53:33.362Z,99181.47
2018-08-11T13:56:01.876Z,99167.50
2018-08-11T13:58:30.453Z,99158.88
2018-08-11T14:00:59.017Z,99148.93
2018-08-11T14:03:27.489Z,99154.99
2018-08-11T14:06:02.171Z,99152.63
2018-08-11T14:08:37.429Z,99152.32
2018-08-11T14:11:06.877Z,99143.39
2018-08-11T14:13:35.415Z,99144.56
2018-08-11T14:16:03.925Z,99136.54
2018-08-11T14:18:32.801Z,99135.52
2018-08-11T14:21:01.230Z,99139.47
2018-08-11T14:23:30.051Z,99133.31
2018-08-11T14:25:58.703Z,99127.69
2018-08-11T14:28:27.237Z,99127.97
2018-08-11T14:31:05.697Z,99134.05
2018-08-11T14:33:34.458Z,99121.48
2018-08-11T14:36:10.379Z,99118.05
2018-08-11T14:38:48.556Z,99119.23
2018-08-11T14:41:18.253Z,99110.83
2018-08-11T14:43:46.721Z,99109.59
2018-08-11T14:46:15.279Z,99107.22
2018-08-11T14:48:44.949Z,99103.98
2018-08-11T14:51:14.058Z,99101.39
2018-08-11T14:53:49.921Z,99100.50
2018-08-11T14:56:19.136Z,99098.02
2018-08-11T14:58:58.323Z,99101.50
2018-08-11T15:01:27.094Z,99097.89
2018-08-11T15:03:55.559Z,99089.34
2018-08-11T15:06:26.069Z,99089.79
2018-08-11T15:08:57.657Z,99083.38
2018-08-11T15:11:26.090Z,99094.06
2018-08-11T15:13:54.541Z,99087.89
2018-08-11T15:16:23.066Z,99073.89
2018-08-11T15:18:51.485Z,99074.61
2018-08-11T15:21:20.085Z,99068.55
2018-08-11T15:23:48.549Z,99072.13
2018-08-11T15:26:17.237Z,99072.09
2018-08-11T15:28:45.629Z,99074.58
2018-08-11T15:31:14.157Z,99071.34
2018-08-11T15:33:42.761Z,99079.47
2018-08-11T15:36:11.205Z,99067.28
2018-08-11T15:38:39.701Z,99074.78
2018-08-11T15:41:08.204Z,99067.77
2018-08-11T15:43:36.718Z,99068.39
2018-08-11T15:46:05.272Z,99061.73
2018-08-11T15:48:33.765Z,99066.75
2018-08-11T15:51:02.276Z,99060.36
2018-08-11T15:53:30.746Z,99063.39
2018-08-11T15:55:59.166Z,99052.19
2018-08-11T15:58:27.645Z,99049.63
2018-08-11T16:00:56.112Z,99050.05
2018-08-11T16:03:24.635Z,99049.39
2018-08-11T16:05:53.164Z,99044.28
2018-08-11T16:08:21.582Z,99048.30
2018-08-11T16:10:50.053Z,99046.98
2018-08-11T16:13:19.257Z,99051.20
2018-08-11T16:15:47.760Z,99035.92
2018-08-11T16:18:16.635Z,99043.95
2018-08-11T16:20:45.064Z,99039.32
2018-08-11T16:23:13.705Z,99041.08
2018-08-11T16:25:42.216Z,99043.75
2018-08-11T16:28:10.894Z,99041.40
2018-08-11T16:30:39.409Z,99044.91
2018-08-11T16:33:08.198Z,99042.14
2018-08-11T16:35:36.665Z,99032.73
2018-08-11T16:38:05.741Z,99035.75
2018-08-11T16:40:34.257Z,99032.58
2018-08-11T16:43:02.917Z,99041.52
2018-08-11T16:45:31.409Z,99029.30
2018-08-11T16:48:00.147Z,99033.61
2018-08-11T16:50:28.604Z,99031.88
2018-08-11T16:52:57.020Z,99027.97
2018-08-11T16:55:25.661Z,99027.44
2018-08-11T16:57:54.149Z,99025.56
2018-08-11T17:00:22.846Z,99018.63
2018-08-11T17:02:51.312Z,99017.94
2018-08-11T17:05:20.002Z,99012.19
2018-08-11T17:07:48.471Z,99009.17
2018-08-11T17:10:17.477Z,99011.75
2018-08-11T17:12:46.141Z,99003.95
2018-08-11T17:15:14.695Z,99005.67
2018-08-11T17:17:43.401Z,99006.02
2018-08-11T17:20:12.143Z,98995.33
2018-08-11T17:22:40.622Z,98988.84
2018-08-11T17:25:09.273Z,98983.31
2018-08-11T17:27:37.810Z,98996.23
2018-08-11T17:30:06.814Z,98992.77
2018-08-11T17:32:35.317Z,98985.45
2018-08-11T17:35:03.832Z,98987.27
2018-08-11T17:37:32.488Z,98985.22
2018-08-11T17:40:01.022Z,98987.34
2018-08-11T17:42:29.661Z,98991.16
2018-08-11T17:44:58.185Z,98980.05
2018-08-11T17:47:26.668Z,98981.39
2018-08-11T17:49:55.197Z,98983.31
2018-08-11T17:52:23.866Z,98984.86
2018-08-11T17:54:52.317Z,98991.17
2018-08-11T17:57:21.013Z,98984.30
2018-08-11T17:59:49.589Z,98978.70
2018-08-11T18:02:18.714Z,98981.36
2018-08-11T18:04:47.169Z,98984.12
2018-08-11T18:07:15.677Z,98975.86
2018-08-11T18:09:44.205Z,98973.70
2018-08-11T18:12:12.827Z,98970.88
2018-08-11T18:14:41.373Z,98974.75
2018-08-11T18:17:09.834Z,98983.38
2018-08-11T18:19:38.842Z,98981.62
2018-08-11T18:22:07.340Z,98983.20
2018-08-11T18:24:35.893Z,98980.14
2018-08-11T18:27:04.462Z,98986.98
2018-08-11T18:29:33.281Z,98993.55
2018-08-11T18:32:01.767Z,98989.55
2018-08-11T18:34:30.359Z,98981.95
2018-08-11T18:36:58.840Z,98980.66
2018-08-11T18:39:27.402Z,98977.56
2018-08-11T18:41:55.881Z,98986.36
2018-08-11T18:44:24.403Z,98988.26
2018-08-11T18:46:53.045Z,98985.97
2018-08-11T18:49:21.745Z,98990.59
2018-08-11T18:51:51.014Z,98989.70
2018-08-11T18:54:19.861Z,98991.56
2018-08-11T18:56:48.434Z,98995.84
2018-08-11T18:59:17.349Z,98994.70
2018-08-11T19:01:46.110Z,98997.84
2018-08-11T19:04:14.609Z,98995.36
2018-08-11T19:06:43.237Z,99001.87
2018-08-11T19:09:13.054Z,98999.18
2018-08-11T19:11:42.066Z,98999.62
2018-08-11T19:14:10.565Z,99002.22
2018-08-11T19:16:39.429Z,99005.64
2018-08-11T19:19:08.129Z,99001.67
2018-08-11T19:21:36.721Z,99005.15
2018-08-11T19:24:05.163Z,99007.70
2018-08-11T19:26:33.746Z,99008.26
2018-08-11T19:29:02.314Z,99010.69
2018-08-11T19:31:30.769Z,99010.39
2018-08-11T19:33:59.487Z,99008.01
2018-08-11T19:36:27.974Z,99012.37
2018-08-11T19:38:56.524Z,99014.23
2018-08-11T19:41:25.058Z,99009.78
2018-08-11T19:43:53.673Z,99006.64
2018-08-11T19:46:22.246Z,99009.67
2018-08-11T19:48:50.983Z,99009.39
2018-08-11T19:51:20.087Z,99008.09
2018-08-11T19:53:48.511Z,99009.30
2018-08-11T19:56:17.377Z,99009.17
2018-08-11T19:58:45.978Z,99009.44
2018-08-11T20:01:14.628Z,99009.67
2018-08-11T20:03:43.066Z,99014.34
2018-08-11T20:06:11.673Z,99014.89
2018-08-11T20:08:40.154Z,99016.48
2018-08-11T20:11:08.798Z,99017.20
2018-08-11T20:13:37.333Z,99011.95
2018-08-11T20:16:06.060Z,99015.70
2018-08-11T20:18:34.874Z,99014.75
2018-08-11T20:21:03.616Z,99011.56
2018-08-11T20:23:32.115Z,99006.66
2018-08-11T20:26:00.758Z,99011.75
2018-08-11T20:28:29.417Z,99011.04
2018-08-11T20:30:57.921Z,99008.20
2018-08-11T20:33:26.485Z,99012.59
2018-08-11T20:35:54.945Z,99008.76
2018-08-11T20:38:23.569Z,99006.08
2018-08-11T20:40:52.070Z,99011.84
2018-08-11T20:43:20.666Z,99003.41
2018-08-11T20:45:49.207Z,99005.43
2018-08-11T20:48:18.073Z,99012.41
2018-08-11T20:50:46.749Z,99003.94
2018-08-11T20:53:15.294Z,99011.56
2018-08-11T20:55:44.062Z,99008.87
2018-08-11T20:58:12.518Z,99011.72
2018-08-11T21:00:41.150Z,99006.66
2018-08-11T21:03:11.645Z,99012.09
2018-08-11T21:05:40.269Z,99014.77
2018-08-11T21:08:08.759Z,99010.02
2018-08-11T21:10:37.322Z,99012.92
2018-08-11T21:13:05.973Z,99011.91
2018-08-11T21:15:34.490Z,99012.92
2018-08-11T21:18:02.946Z,99012.42
2018-08-11T21:20:31.476Z,99014.62
2018-08-11T21:23:00.046Z,99015.44
2018-08-11T21:25:28.541Z,99013.70
2018-08-11T21:27:57.054Z,99018.25
2018-08-11T21:30:25.577Z,99014.17
2018-08-11T21:32:54.146Z,99024.66
2018-08-11T21:35:22.643Z,99020.23
2018-08-11T21:37:51.301Z,99022.74
2018-08-11T21:40:19.814Z,99017.31
2018-08-11T21:42:48.377Z,99020.95
2018-08-11T21:45:17.489Z,99023.00
2018-08-11T21:47:46.103Z,99023.33
2018-08-11T21:50:14.609Z,99016.08
2018-08-11T21:52:43.387Z,99021.12
2018-08-11T21:55:12.254Z,99019.78
2018-08-11T21:57:40.697Z,99023.66
2018-08-11T22:00:46.226Z,99021.43
2018-08-11T22:03:14.797Z,99023.27
2018-08-11T22:05:43.566Z,99020.38
2018-08-11T22:08:12.003Z,99017.48
2018-08-11T22:10:40.726Z,99016.58
2018-08-11T22:13:09.434Z,99016.17
2018-08-11T22:15:38.133Z,99014.74
2018-08-11T22:18:06.720Z,99012.69
2018-08-11T22:20:35.223Z,99009.61
2018-08-11T22:23:03.910Z,99010.92
2018-08-11T22:25:32.425Z,99012.23
2018-08-11T22:28:01.213Z,99008.81
2018-08-11T22:30:29.686Z,99003.04
2018-08-11T22:32:58.366Z,99003.73
2018-08-11T22:35:26.886Z,99004.48
2018-08-11T22:37:55.537Z,99006.02
2018-08-11T22:40:24.001Z,99000.39
2018-08-11T22:42:52.550Z,98998.62
2018-08-11T22:45:21.587Z,99000.75
2018-08-11T22:47:50.066Z,98998.59
2018-08-11T22:50:18.967Z,99010.53
2018-08-11T22:52:47.460Z,99008.09
2018-08-11T22:55:16.285Z,99003.58
2018-08-11T22:57:44.899Z,99008.12
2018-08-11T23:00:17.110Z,98999.63
2018-08-11T23:02:45.823Z,98999.77
2018-08-11T23:05:15.176Z,98997.39
2018-08-11T23:07:43.649Z,98991.94
2018-08-11T23:10:13.741Z,98992.30
2018-08-11T23:12:43.323Z,98987.57
2018-08-11T23:15:13.553Z,98992.12
2018-08-11T23:17:43.773Z,98991.86
2018-08-11T23:20:12.234Z,98989.92
2018-08-11T23:22:40.718Z,98996.41
2018-08-11T23:25:10.263Z,98992.48
2018-08-11T23:27:38.879Z,98982.50
2018-08-11T23:30:10.302Z,98986.63
2018-08-11T23:32:39.784Z,98979.44
2018-08-11T23:35:08.347Z,98984.24
2018-08-11T23:37:36.805Z,98976.41
2018-08-11T23:40:06.390Z,98980.77
2018-08-11T23:42:35.273Z,98979.35
2018-08-11T23:45:03.969Z,98981.84
2018-08-11T23:47:32.445Z,98984.26
2018-08-11T23:50:01.086Z,98982.17
2018-08-11T23:52:29.533Z,98980.36
2018-08-11T23:54:58.073Z,98979.63
2018-08-11T23:57:26.617Z,98981.07
2018-08-11T23:59:55.145Z,98979.52
